Flight Track Log - Related Links

Times and Time Zones

All times are in EDT time to prevent confusion due to time zone crossing. See the RPA3868 flight status page for this flight to view local times or setup timezone preferences in your user account.

Time Position Orientation Groundspeed Altitude Reporting Facility
EDT Latitude Longitude Course Direction KTS MPH feet Rate Location/Type
Sat 12:13:43 PM 39.8069 -104.6678 204° Southwest 176 203 7,000  Level Denver Center
Sat 12:14:45 PM 39.7481 -104.6869 194° South 197 227 9,600 2,129 Climbing Denver Center
Sat 12:15:47 PM 39.6906 -104.7017 191° South 208 239 11,400 1,790 Climbing Denver Center
Sat 12:16:49 PM 39.6278 -104.7431 207° Southwest 234 269 13,300 1,756 Climbing Denver Center
Sat 12:17:50 PM 39.5678 -104.7842 208° Southwest 243 280 15,000 1,610 Climbing Denver Center
Sat 12:18:52 PM 39.5044 -104.8256 207° Southwest 253 291 16,600 1,306 Climbing Denver Center
Sat 12:19:00 PM 39.3571 -104.9222 204° Southwest  Level FlightAware Approximate
Sat 12:19:54 PM 39.4353 -104.8725 208° Southwest 262 302 17,700  Level Denver Center
Sat 12:20:56 PM 39.3708 -104.9139 206° Southwest 260 299 18,800 1,210 Climbing Denver Center
Sat 12:21:58 PM 39.3022 -104.9583 207° Southwest 257 296 20,200 1,258 Climbing Denver Center
Sat 12:23:00 PM 39.2361 -105.0000 206° Southwest 264 304 21,400 1,065 Climbing Denver Center
Sat 12:24:02 PM 39.1708 -105.0456 208° Southwest 271 312 22,400 968 Climbing Denver Center
Sat 12:25:04 PM 39.0939 -105.0922 205° Southwest 276 318 23,400 774 Climbing Denver Center
Sat 12:26:06 PM 39.0242 -105.1306 203° Southwest 282 325 24,000 290 Climbing Denver Center
Sat 12:27:08 PM 38.9389 -105.1814 205° Southwest 302 348 24,000  Level Denver Center
Sat 12:28:10 PM 38.8681 -105.2219 204° Southwest 293 337 24,000  Level Denver Center
Sat 12:29:12 PM 38.7944 -105.2636 204° Southwest 298 343 24,000  Level Denver Center
Sat 12:30:14 PM 38.7089 -105.3142 205° Southwest 301 346 24,000  Level Denver Center
Sat 12:31:16 PM 38.6339 -105.3586 205° Southwest 305 351 24,000  Level Denver Center
Sat 12:32:18 PM 38.5444 -105.4086 204° Southwest 311 358 24,000  Level Denver Center
Sat 12:33:20 PM 38.4642 -105.4342 194° South 313 360 24,000  Level Denver Center
Sat 12:34:22 PM 38.3694 -105.4656 195° South 313 360 24,000  Level Denver Center
Sat 12:35:24 PM 38.2906 -105.4939 196° South 310 357 24,000  Level Denver Center
Sat 12:36:26 PM 38.1981 -105.5267 196° South 308 354 24,000  Level Denver Center
Sat 12:37:28 PM 38.1211 -105.5525 195° South 303 349 24,000  Level Denver Center
Sat 12:38:30 PM 38.0300 -105.5836 195° South 303 349 24,000  Level Denver Center
Sat 12:39:32 PM 37.9533 -105.6108 196° South 301 346 24,000  Level Denver Center
Sat 12:40:34 PM 37.8631 -105.6408 195° South 299 344 24,000  Level Denver Center
Sat 12:41:36 PM 37.7861 -105.6672 195° South 299 344 24,000  Level Denver Center
Sat 12:42:38 PM 37.6964 -105.6975 195° South 299 344 24,000  Level Denver Center
Sat 12:43:40 PM 37.6194 -105.7239 195° South 299 344 24,000  Level Denver Center
Sat 12:44:42 PM 37.5319 -105.7544 195° South 295 339 24,000  Level Denver Center
Sat 12:45:44 PM 37.4542 -105.7794 194° South 298 343 24,000  Level Denver Center
Sat 12:46:46 PM 37.3669 -105.8114 196° South 295 339 24,000  Level Denver Center
Sat 12:47:48 PM 37.3408 -105.8997 250° West 285 328 24,000  Level Denver Center
Sat 12:48:50 PM 37.3333 -105.9964 264° West 288 331 24,000  Level Denver Center
Sat 12:49:52 PM 37.3217 -106.1050 262° West 283 326 24,000  Level Denver Center
Sat 12:50:54 PM 37.3117 -106.2089 263° West 288 331 24,000  Level Denver Center
Sat 12:51:56 PM 37.3022 -106.3033 263° West 286 329 24,000  Level Denver Center
Sat 12:52:58 PM 37.2917 -106.4144 263° West 287 330 24,000  Level Denver Center
Sat 12:54:00 PM 37.2825 -106.5094 263° West 287 330 24,000 -435 Level Denver Center
Sat 12:55:02 PM 37.2619 -106.6222 257° West 298 343 23,100 -871 Descending Denver Center
Sat 12:56:04 PM 37.2339 -106.7153 249° West 299 344 22,200 -968 Descending Denver Center
Sat 12:57:06 PM 37.2039 -106.8125 249° West 277 319 21,100 -968 Descending Denver Center
Sat 12:58:08 PM 37.1797 -106.8942 250° West 266 306 20,200 -1,016 Descending Denver Center
Sat 12:59:10 PM 37.1508 -106.9961 250° West 275 316 19,000 -1,113 Descending Denver Center
Sat 01:00:12 PM 37.1264 -107.0797 250° West 271 312 17,900 -919 Descending Denver Center
Sat 01:01:14 PM 37.0978 -107.1753 249° West 265 305 17,100 -919 Descending Denver Center
Sat 01:02:16 PM 37.0739 -107.2600 251° West 267 307 16,000 -1,790 Descending Denver Center
Sat 01:03:18 PM 37.0428 -107.3606 249° West 273 314 13,400 -1,694 Descending Denver Center
Sat 01:04:20 PM 37.0169 -107.4486 250° West 279 321 12,500 -677 Descending Denver Center
Sat 01:05:22 PM 36.9967 -107.5267 252° West 262 302 12,000 -288 Descending Denver Center
Sat 01:06:25 PM 36.9536 -107.6042 235° Southwest 249 287 11,900  Descending Denver Center
Sat 01:07:27 PM 36.9233 -107.6706 240° Southwest 237 273 12,000 48 Climbing Denver Center
Sat 01:08:29 PM 36.9183 -107.7644 266° West 236 272 12,000 -145 Level Denver Center
Sat 01:09:31 PM 36.9303 -107.8419 281° West 237 273 11,700 -435 Descending Denver Center
Sat 01:10:33 PM 36.9683 -107.9022 308° West 219 252 11,100 -726 Descending Denver Center
Sat 01:11:35 PM 37.0161 -107.8847 16° North 201 231 10,200 -1,113 Descending Denver Center
Sat 01:12:37 PM 37.0642 -107.8353 39° Northeast 199 229 8,800 -1,210 Descending Denver Center
Sat 01:13:39 PM 37.1000 -107.8011 37° Northeast 181 208 7,700 -968 Descending Denver Center
Sat 01:14:41 PM 37.1322 -107.7708 37° Northeast 161 185 6,800 -871 Descending Denver Center

Login

Don't have an account? Register now (free) for customized features, flight alerts, and more!